sensor_id;sensor_type;location;lat;lon;timestamp;P1;durP1;ratioP1;P2;durP2;ratioP2
40116;SDS011;25829;50.228;18.936;2023-04-03T00:02:04;3.73;;;3.33;;
40116;SDS011;25829;50.228;18.936;2023-04-03T00:05:05;3.80;;;3.20;;
40116;SDS011;25829;50.228;18.936;2023-04-03T00:08:07;4.30;;;3.60;;
40116;SDS011;25829;50.228;18.936;2023-04-03T00:11:12;3.63;;;3.03;;
40116;SDS011;25829;50.228;18.936;2023-04-03T00:14:13;4.60;;;3.67;;
40116;SDS011;25829;50.228;18.936;2023-04-03T00:17:14;5.67;;;3.50;;
40116;SDS011;25829;50.228;18.936;2023-04-03T00:20:15;4.23;;;3.70;;
40116;SDS011;25829;50.228;18.936;2023-04-03T00:23:16;3.87;;;3.27;;
40116;SDS011;25829;50.228;18.936;2023-04-03T00:26:17;3.87;;;3.47;;
40116;SDS011;25829;50.228;18.936;2023-04-03T00:29:18;5.80;;;4.07;;
40116;SDS011;25829;50.228;18.936;2023-04-03T00:32:19;3.90;;;3.30;;
40116;SDS011;25829;50.228;18.936;2023-04-03T00:35:21;4.50;;;3.57;;
40116;SDS011;25829;50.228;18.936;2023-04-03T00:38:22;4.17;;;3.57;;
40116;SDS011;25829;50.228;18.936;2023-04-03T00:41:23;4.33;;;3.67;;
40116;SDS011;25829;50.228;18.936;2023-04-03T00:47:38;4.13;;;3.33;;
40116;SDS011;25829;50.228;18.936;2023-04-03T00:50:41;4.53;;;3.83;;
40116;SDS011;25829;50.228;18.936;2023-04-03T00:53:54;4.57;;;3.87;;
40116;SDS011;25829;50.228;18.936;2023-04-03T00:56:59;5.10;;;3.57;;
40116;SDS011;25829;50.228;18.936;2023-04-03T01:00:07;5.37;;;4.03;;
40116;SDS011;25829;50.228;18.936;2023-04-03T01:03:15;4.17;;;3.73;;
40116;SDS011;25829;50.228;18.936;2023-04-03T01:06:16;4.67;;;3.60;;
40116;SDS011;25829;50.228;18.936;2023-04-03T01:09:21;4.83;;;4.33;;
40116;SDS011;25829;50.228;18.936;2023-04-03T01:12:26;6.43;;;4.30;;
40116;SDS011;25829;50.228;18.936;2023-04-03T01:15:29;4.20;;;3.80;;
40116;SDS011;25829;50.228;18.936;2023-04-03T01:18:35;6.87;;;4.63;;
40116;SDS011;25829;50.228;18.936;2023-04-03T01:25:03;5.47;;;4.90;;
40116;SDS011;25829;50.228;18.936;2023-04-03T01:28:07;7.00;;;4.80;;
40116;SDS011;25829;50.228;18.936;2023-04-03T01:31:27;5.97;;;5.27;;
40116;SDS011;25829;50.228;18.936;2023-04-03T01:34:31;6.60;;;4.50;;
40116;SDS011;25829;50.228;18.936;2023-04-03T01:37:36;5.17;;;4.50;;
40116;SDS011;25829;50.228;18.936;2023-04-03T01:40:37;6.73;;;5.10;;
40116;SDS011;25829;50.228;18.936;2023-04-03T01:43:38;5.00;;;4.50;;
40116;SDS011;25829;50.228;18.936;2023-04-03T01:46:38;5.37;;;4.40;;
40116;SDS011;25829;50.228;18.936;2023-04-03T01:49:40;6.87;;;4.57;;
40116;SDS011;25829;50.228;18.936;2023-04-03T01:52:41;7.40;;;5.07;;
40116;SDS011;25829;50.228;18.936;2023-04-03T01:55:44;7.07;;;5.00;;
40116;SDS011;25829;50.228;18.936;2023-04-03T01:58:48;5.63;;;4.43;;
40116;SDS011;25829;50.228;18.936;2023-04-03T02:01:50;4.50;;;4.10;;
40116;SDS011;25829;50.228;18.936;2023-04-03T02:04:54;4.40;;;3.40;;
40116;SDS011;25829;50.228;18.936;2023-04-03T02:07:55;4.40;;;3.73;;
40116;SDS011;25829;50.228;18.936;2023-04-03T02:10:56;5.30;;;3.87;;
40116;SDS011;25829;50.228;18.936;2023-04-03T02:13:57;6.47;;;4.60;;
40116;SDS011;25829;50.228;18.936;2023-04-03T02:16:59;4.20;;;3.80;;
40116;SDS011;25829;50.228;18.936;2023-04-03T02:20:01;4.23;;;3.37;;
40116;SDS011;25829;50.228;18.936;2023-04-03T02:23:03;5.40;;;4.00;;
40116;SDS011;25829;50.228;18.936;2023-04-03T02:26:08;4.23;;;3.60;;
40116;SDS011;25829;50.228;18.936;2023-04-03T02:29:13;4.47;;;4.03;;
40116;SDS011;25829;50.228;18.936;2023-04-03T02:32:14;6.30;;;4.50;;
40116;SDS011;25829;50.228;18.936;2023-04-03T02:35:17;5.77;;;4.37;;
40116;SDS011;25829;50.228;18.936;2023-04-03T02:38:22;5.53;;;3.70;;
40116;SDS011;25829;50.228;18.936;2023-04-03T02:41:23;5.63;;;4.13;;
40116;SDS011;25829;50.228;18.936;2023-04-03T02:44:26;5.13;;;3.70;;
40116;SDS011;25829;50.228;18.936;2023-04-03T02:47:27;5.27;;;4.40;;
40116;SDS011;25829;50.228;18.936;2023-04-03T02:50:28;4.73;;;3.80;;
40116;SDS011;25829;50.228;18.936;2023-04-03T02:53:29;6.33;;;4.03;;
40116;SDS011;25829;50.228;18.936;2023-04-03T02:56:33;4.90;;;4.27;;
40116;SDS011;25829;50.228;18.936;2023-04-03T02:59:37;4.83;;;3.77;;
40116;SDS011;25829;50.228;18.936;2023-04-03T03:02:41;6.33;;;3.83;;
40116;SDS011;25829;50.228;18.936;2023-04-03T03:05:42;5.90;;;4.03;;
40116;SDS011;25829;50.228;18.936;2023-04-03T03:08:43;4.97;;;3.63;;
40116;SDS011;25829;50.228;18.936;2023-04-03T03:11:44;7.50;;;4.30;;
40116;SDS011;25829;50.228;18.936;2023-04-03T03:14:45;7.13;;;3.97;;
40116;SDS011;25829;50.228;18.936;2023-04-03T03:17:46;7.47;;;3.90;;
40116;SDS011;25829;50.228;18.936;2023-04-03T03:20:46;4.40;;;3.43;;
40116;SDS011;25829;50.228;18.936;2023-04-03T03:23:50;5.70;;;4.20;;
40116;SDS011;25829;50.228;18.936;2023-04-03T03:26:51;5.23;;;3.93;;
40116;SDS011;25829;50.228;18.936;2023-04-03T03:29:52;5.17;;;4.03;;
40116;SDS011;25829;50.228;18.936;2023-04-03T03:32:54;5.67;;;3.53;;
40116;SDS011;25829;50.228;18.936;2023-04-03T03:35:55;5.30;;;3.67;;
40116;SDS011;25829;50.228;18.936;2023-04-03T03:38:56;3.73;;;3.20;;
40116;SDS011;25829;50.228;18.936;2023-04-03T03:41:58;5.03;;;3.20;;
40116;SDS011;25829;50.228;18.936;2023-04-03T03:44:59;3.43;;;2.93;;
40116;SDS011;25829;50.228;18.936;2023-04-03T03:48:00;4.20;;;2.93;;
40116;SDS011;25829;50.228;18.936;2023-04-03T03:51:01;5.63;;;3.30;;
40116;SDS011;25829;50.228;18.936;2023-04-03T03:54:07;3.47;;;3.10;;
40116;SDS011;25829;50.228;18.936;2023-04-03T03:57:08;4.53;;;2.87;;
40116;SDS011;25829;50.228;18.936;2023-04-03T04:00:10;6.17;;;3.90;;
40116;SDS011;25829;50.228;18.936;2023-04-03T04:03:22;6.33;;;3.50;;
40116;SDS011;25829;50.228;18.936;2023-04-03T04:06:24;6.00;;;3.40;;
40116;SDS011;25829;50.228;18.936;2023-04-03T04:09:29;4.37;;;3.10;;
40116;SDS011;25829;50.228;18.936;2023-04-03T04:12:31;4.93;;;3.53;;
40116;SDS011;25829;50.228;18.936;2023-04-03T04:15:32;5.33;;;3.57;;
40116;SDS011;25829;50.228;18.936;2023-04-03T04:18:33;5.80;;;3.17;;
40116;SDS011;25829;50.228;18.936;2023-04-03T04:21:34;4.73;;;3.80;;
40116;SDS011;25829;50.228;18.936;2023-04-03T04:24:38;7.17;;;3.67;;
40116;SDS011;25829;50.228;18.936;2023-04-03T04:27:42;6.13;;;3.23;;
40116;SDS011;25829;50.228;18.936;2023-04-03T04:30:43;3.80;;;2.57;;
40116;SDS011;25829;50.228;18.936;2023-04-03T04:33:45;3.30;;;2.70;;
40116;SDS011;25829;50.228;18.936;2023-04-03T04:36:48;4.17;;;2.87;;
40116;SDS011;25829;50.228;18.936;2023-04-03T04:39:49;4.50;;;3.50;;
40116;SDS011;25829;50.228;18.936;2023-04-03T04:42:50;4.57;;;3.00;;
40116;SDS011;25829;50.228;18.936;2023-04-03T04:46:04;7.27;;;3.77;;
40116;SDS011;25829;50.228;18.936;2023-04-03T04:49:11;9.07;;;4.70;;
40116;SDS011;25829;50.228;18.936;2023-04-03T04:52:12;7.10;;;4.73;;
40116;SDS011;25829;50.228;18.936;2023-04-03T04:55:14;9.23;;;5.63;;
40116;SDS011;25829;50.228;18.936;2023-04-03T04:58:15;6.03;;;3.87;;
40116;SDS011;25829;50.228;18.936;2023-04-03T05:01:27;7.63;;;4.30;;
40116;SDS011;25829;50.228;18.936;2023-04-03T05:04:38;6.43;;;4.30;;
40116;SDS011;25829;50.228;18.936;2023-04-03T05:07:45;4.70;;;3.10;;
40116;SDS011;25829;50.228;18.936;2023-04-03T05:10:46;5.93;;;3.53;;
40116;SDS011;25829;50.228;18.936;2023-04-03T05:13:48;7.40;;;3.53;;
40116;SDS011;25829;50.228;18.936;2023-04-03T05:16:49;7.90;;;3.30;;
40116;SDS011;25829;50.228;18.936;2023-04-03T05:19:55;8.30;;;3.70;;
40116;SDS011;25829;50.228;18.936;2023-04-03T05:23:00;5.33;;;3.70;;
40116;SDS011;25829;50.228;18.936;2023-04-03T05:26:01;5.23;;;3.47;;
40116;SDS011;25829;50.228;18.936;2023-04-03T05:29:03;3.40;;;2.90;;
40116;SDS011;25829;50.228;18.936;2023-04-03T05:32:04;4.33;;;3.00;;
40116;SDS011;25829;50.228;18.936;2023-04-03T05:35:05;4.57;;;3.30;;
40116;SDS011;25829;50.228;18.936;2023-04-03T05:38:07;5.17;;;3.53;;
40116;SDS011;25829;50.228;18.936;2023-04-03T05:41:08;6.67;;;3.33;;
40116;SDS011;25829;50.228;18.936;2023-04-03T05:44:09;6.20;;;3.53;;
40116;SDS011;25829;50.228;18.936;2023-04-03T05:47:10;4.10;;;3.00;;
40116;SDS011;25829;50.228;18.936;2023-04-03T05:50:11;8.40;;;3.70;;
40116;SDS011;25829;50.228;18.936;2023-04-03T05:53:17;4.57;;;3.17;;
40116;SDS011;25829;50.228;18.936;2023-04-03T05:56:32;6.73;;;3.47;;
40116;SDS011;25829;50.228;18.936;2023-04-03T05:59:33;5.07;;;3.40;;
40116;SDS011;25829;50.228;18.936;2023-04-03T06:02:34;5.57;;;2.80;;
40116;SDS011;25829;50.228;18.936;2023-04-03T06:05:36;4.57;;;3.33;;
40116;SDS011;25829;50.228;18.936;2023-04-03T06:08:37;4.27;;;2.80;;
40116;SDS011;25829;50.228;18.936;2023-04-03T06:11:38;6.23;;;3.40;;
40116;SDS011;25829;50.228;18.936;2023-04-03T06:14:39;5.47;;;3.20;;
40116;SDS011;25829;50.228;18.936;2023-04-03T06:17:40;5.00;;;3.33;;
40116;SDS011;25829;50.228;18.936;2023-04-03T06:20:42;6.10;;;3.67;;
40116;SDS011;25829;50.228;18.936;2023-04-03T06:23:43;6.43;;;3.77;;
40116;SDS011;25829;50.228;18.936;2023-04-03T06:26:44;6.33;;;3.60;;
40116;SDS011;25829;50.228;18.936;2023-04-03T06:29:45;5.70;;;3.40;;
40116;SDS011;25829;50.228;18.936;2023-04-03T06:32:46;5.70;;;3.73;;
40116;SDS011;25829;50.228;18.936;2023-04-03T06:35:47;4.93;;;3.73;;
40116;SDS011;25829;50.228;18.936;2023-04-03T06:38:49;7.40;;;3.60;;
40116;SDS011;25829;50.228;18.936;2023-04-03T06:41:50;4.87;;;3.40;;
40116;SDS011;25829;50.228;18.936;2023-04-03T06:44:52;7.40;;;3.77;;
40116;SDS011;25829;50.228;18.936;2023-04-03T06:47:56;5.23;;;3.30;;
40116;SDS011;25829;50.228;18.936;2023-04-03T06:50:56;9.23;;;3.47;;
40116;SDS011;25829;50.228;18.936;2023-04-03T06:53:58;6.57;;;3.90;;
40116;SDS011;25829;50.228;18.936;2023-04-03T06:57:00;7.80;;;3.83;;
40116;SDS011;25829;50.228;18.936;2023-04-03T07:00:01;5.70;;;3.10;;
40116;SDS011;25829;50.228;18.936;2023-04-03T07:03:06;3.83;;;3.03;;
40116;SDS011;25829;50.228;18.936;2023-04-03T07:06:09;8.63;;;4.03;;
40116;SDS011;25829;50.228;18.936;2023-04-03T07:09:13;7.97;;;3.27;;
40116;SDS011;25829;50.228;18.936;2023-04-03T07:12:15;4.93;;;3.43;;
40116;SDS011;25829;50.228;18.936;2023-04-03T07:15:16;5.97;;;3.63;;
40116;SDS011;25829;50.228;18.936;2023-04-03T07:18:17;6.10;;;3.50;;
40116;SDS011;25829;50.228;18.936;2023-04-03T07:21:17;8.50;;;3.90;;
40116;SDS011;25829;50.228;18.936;2023-04-03T07:24:18;6.27;;;3.50;;
40116;SDS011;25829;50.228;18.936;2023-04-03T07:27:19;5.50;;;3.13;;
40116;SDS011;25829;50.228;18.936;2023-04-03T07:34:50;4.90;;;3.53;;
40116;SDS011;25829;50.228;18.936;2023-04-03T07:37:53;6.43;;;3.63;;
40116;SDS011;25829;50.228;18.936;2023-04-03T07:40:54;4.97;;;3.37;;
40116;SDS011;25829;50.228;18.936;2023-04-03T07:43:55;4.07;;;2.90;;
40116;SDS011;25829;50.228;18.936;2023-04-03T07:47:04;9.00;;;3.50;;
40116;SDS011;25829;50.228;18.936;2023-04-03T07:50:05;5.17;;;2.93;;
40116;SDS011;25829;50.228;18.936;2023-04-03T07:56:31;4.83;;;3.57;;
40116;SDS011;25829;50.228;18.936;2023-04-03T07:59:41;6.97;;;3.97;;
40116;SDS011;25829;50.228;18.936;2023-04-03T08:03:00;4.20;;;3.10;;
40116;SDS011;25829;50.228;18.936;2023-04-03T08:06:06;6.13;;;3.13;;
40116;SDS011;25829;50.228;18.936;2023-04-03T08:09:19;5.90;;;3.40;;
40116;SDS011;25829;50.228;18.936;2023-04-03T08:12:20;4.10;;;3.00;;
40116;SDS011;25829;50.228;18.936;2023-04-03T08:15:29;5.40;;;3.17;;
40116;SDS011;25829;50.228;18.936;2023-04-03T08:18:31;4.77;;;3.07;;
40116;SDS011;25829;50.228;18.936;2023-04-03T08:21:35;4.13;;;2.70;;
40116;SDS011;25829;50.228;18.936;2023-04-03T08:24:36;4.93;;;3.00;;
40116;SDS011;25829;50.228;18.936;2023-04-03T08:27:37;5.87;;;2.97;;
40116;SDS011;25829;50.228;18.936;2023-04-03T08:30:43;4.27;;;2.63;;
40116;SDS011;25829;50.228;18.936;2023-04-03T08:33:45;4.30;;;2.50;;
40116;SDS011;25829;50.228;18.936;2023-04-03T08:36:47;6.70;;;2.77;;
40116;SDS011;25829;50.228;18.936;2023-04-03T08:39:48;3.30;;;2.00;;
40116;SDS011;25829;50.228;18.936;2023-04-03T08:46:14;2.60;;;2.13;;
40116;SDS011;25829;50.228;18.936;2023-04-03T08:49:45;2.97;;;2.13;;
40116;SDS011;25829;50.228;18.936;2023-04-03T08:52:57;4.53;;;2.60;;
40116;SDS011;25829;50.228;18.936;2023-04-03T08:56:00;2.57;;;1.90;;
40116;SDS011;25829;50.228;18.936;2023-04-03T08:59:10;4.83;;;2.47;;
40116;SDS011;25829;50.228;18.936;2023-04-03T09:02:33;3.40;;;2.90;;
40116;SDS011;25829;50.228;18.936;2023-04-03T09:05:52;3.37;;;2.40;;
40116;SDS011;25829;50.228;18.936;2023-04-03T09:12:12;3.63;;;2.43;;
40116;SDS011;25829;50.228;18.936;2023-04-03T09:15:19;3.10;;;2.03;;
40116;SDS011;25829;50.228;18.936;2023-04-03T09:18:40;2.30;;;2.07;;
40116;SDS011;25829;50.228;18.936;2023-04-03T09:21:47;2.33;;;1.80;;
40116;SDS011;25829;50.228;18.936;2023-04-03T09:24:58;3.17;;;2.30;;
40116;SDS011;25829;50.228;18.936;2023-04-03T09:28:11;2.57;;;2.10;;
40116;SDS011;25829;50.228;18.936;2023-04-03T09:31:23;3.17;;;2.23;;
40116;SDS011;25829;50.228;18.936;2023-04-03T09:34:30;4.73;;;1.93;;
40116;SDS011;25829;50.228;18.936;2023-04-03T09:37:38;3.93;;;1.97;;
40116;SDS011;25829;50.228;18.936;2023-04-03T09:40:45;3.23;;;1.70;;
40116;SDS011;25829;50.228;18.936;2023-04-03T09:44:22;4.50;;;2.00;;
40116;SDS011;25829;50.228;18.936;2023-04-03T09:47:30;1.73;;;1.63;;
40116;SDS011;25829;50.228;18.936;2023-04-03T09:50:34;2.17;;;1.70;;
40116;SDS011;25829;50.228;18.936;2023-04-03T09:53:55;4.53;;;1.90;;
40116;SDS011;25829;50.228;18.936;2023-04-03T09:57:01;2.40;;;1.73;;
40116;SDS011;25829;50.228;18.936;2023-04-03T10:03:43;2.23;;;1.53;;
40116;SDS011;25829;50.228;18.936;2023-04-03T10:06:53;3.33;;;1.90;;
40116;SDS011;25829;50.228;18.936;2023-04-03T10:09:58;3.70;;;2.10;;
40116;SDS011;25829;50.228;18.936;2023-04-03T10:13:26;2.30;;;1.70;;
40116;SDS011;25829;50.228;18.936;2023-04-03T10:16:35;3.83;;;2.23;;
40116;SDS011;25829;50.228;18.936;2023-04-03T10:26:43;2.53;;;2.03;;
40116;SDS011;25829;50.228;18.936;2023-04-03T10:29:55;3.40;;;1.73;;
40116;SDS011;25829;50.228;18.936;2023-04-03T10:36:37;3.87;;;1.93;;
40116;SDS011;25829;50.228;18.936;2023-04-03T10:46:36;3.30;;;2.00;;
40116;SDS011;25829;50.228;18.936;2023-04-03T10:56:43;2.47;;;2.03;;
40116;SDS011;25829;50.228;18.936;2023-04-03T10:59:58;3.10;;;2.30;;
40116;SDS011;25829;50.228;18.936;2023-04-03T11:03:13;4.60;;;2.47;;
40116;SDS011;25829;50.228;18.936;2023-04-03T11:06:26;3.97;;;2.23;;
40116;SDS011;25829;50.228;18.936;2023-04-03T11:09:37;3.23;;;2.07;;
40116;SDS011;25829;50.228;18.936;2023-04-03T11:12:43;3.67;;;2.10;;
40116;SDS011;25829;50.228;18.936;2023-04-03T11:15:48;3.50;;;2.33;;
40116;SDS011;25829;50.228;18.936;2023-04-03T11:19:34;6.70;;;2.40;;
40116;SDS011;25829;50.228;18.936;2023-04-03T11:22:31;3.17;;;2.17;;
40116;SDS011;25829;50.228;18.936;2023-04-03T11:25:38;2.77;;;1.90;;
40116;SDS011;25829;50.228;18.936;2023-04-03T11:28:41;2.63;;;1.73;;
40116;SDS011;25829;50.228;18.936;2023-04-03T11:31:56;4.00;;;2.20;;
40116;SDS011;25829;50.228;18.936;2023-04-03T11:35:07;2.83;;;1.80;;
40116;SDS011;25829;50.228;18.936;2023-04-03T11:38:18;4.20;;;2.00;;
40116;SDS011;25829;50.228;18.936;2023-04-03T11:41:31;1.70;;;1.60;;
40116;SDS011;25829;50.228;18.936;2023-04-03T11:44:51;2.63;;;1.73;;
40116;SDS011;25829;50.228;18.936;2023-04-03T11:54:48;3.03;;;1.80;;
40116;SDS011;25829;50.228;18.936;2023-04-03T12:01:51;1.77;;;1.67;;
40116;SDS011;25829;50.228;18.936;2023-04-03T12:08:49;2.57;;;1.80;;
40116;SDS011;25829;50.228;18.936;2023-04-03T12:11:56;2.20;;;1.90;;
40116;SDS011;25829;50.228;18.936;2023-04-03T12:25:50;2.83;;;2.00;;
40116;SDS011;25829;50.228;18.936;2023-04-03T12:28:50;3.13;;;1.90;;
40116;SDS011;25829;50.228;18.936;2023-04-03T12:35:24;2.57;;;1.87;;
40116;SDS011;25829;50.228;18.936;2023-04-03T12:38:41;2.53;;;2.23;;
40116;SDS011;25829;50.228;18.936;2023-04-03T12:52:45;2.03;;;1.50;;
40116;SDS011;25829;50.228;18.936;2023-04-03T12:55:55;3.67;;;2.33;;
40116;SDS011;25829;50.228;18.936;2023-04-03T12:59:16;5.13;;;3.23;;
40116;SDS011;25829;50.228;18.936;2023-04-03T13:02:28;5.47;;;3.90;;
40116;SDS011;25829;50.228;18.936;2023-04-03T13:05:31;6.70;;;3.97;;
40116;SDS011;25829;50.228;18.936;2023-04-03T13:08:36;4.40;;;2.93;;
40116;SDS011;25829;50.228;18.936;2023-04-03T13:11:38;5.43;;;3.30;;
40116;SDS011;25829;50.228;18.936;2023-04-03T13:14:51;3.80;;;2.60;;
40116;SDS011;25829;50.228;18.936;2023-04-03T13:21:32;3.23;;;2.60;;
40116;SDS011;25829;50.228;18.936;2023-04-03T13:24:36;3.57;;;2.00;;
40116;SDS011;25829;50.228;18.936;2023-04-03T13:27:39;3.80;;;2.30;;
40116;SDS011;25829;50.228;18.936;2023-04-03T13:34:10;2.37;;;1.80;;
40116;SDS011;25829;50.228;18.936;2023-04-03T13:37:30;2.10;;;1.83;;
40116;SDS011;25829;50.228;18.936;2023-04-03T13:40:33;4.23;;;2.20;;
40116;SDS011;25829;50.228;18.936;2023-04-03T13:43:35;3.17;;;1.83;;
40116;SDS011;25829;50.228;18.936;2023-04-03T13:46:40;4.00;;;2.43;;
40116;SDS011;25829;50.228;18.936;2023-04-03T13:49:42;3.57;;;2.20;;
40116;SDS011;25829;50.228;18.936;2023-04-03T13:52:53;4.83;;;2.10;;
40116;SDS011;25829;50.228;18.936;2023-04-03T13:56:14;3.77;;;1.90;;
40116;SDS011;25829;50.228;18.936;2023-04-03T13:59:20;4.07;;;2.10;;
40116;SDS011;25829;50.228;18.936;2023-04-03T14:02:40;2.20;;;1.87;;
40116;SDS011;25829;50.228;18.936;2023-04-03T14:05:41;2.90;;;2.23;;
40116;SDS011;25829;50.228;18.936;2023-04-03T14:08:45;4.03;;;2.27;;
40116;SDS011;25829;50.228;18.936;2023-04-03T14:11:46;2.47;;;2.13;;
40116;SDS011;25829;50.228;18.936;2023-04-03T14:14:49;3.20;;;2.20;;
40116;SDS011;25829;50.228;18.936;2023-04-03T14:17:50;3.90;;;2.40;;
40116;SDS011;25829;50.228;18.936;2023-04-03T14:20:51;4.73;;;2.40;;
40116;SDS011;25829;50.228;18.936;2023-04-03T14:23:52;3.27;;;2.30;;
40116;SDS011;25829;50.228;18.936;2023-04-03T14:26:54;2.83;;;1.90;;
40116;SDS011;25829;50.228;18.936;2023-04-03T14:29:56;3.27;;;2.30;;
40116;SDS011;25829;50.228;18.936;2023-04-03T14:32:59;2.97;;;2.07;;
40116;SDS011;25829;50.228;18.936;2023-04-03T14:36:02;2.77;;;2.07;;
40116;SDS011;25829;50.228;18.936;2023-04-03T14:39:18;2.93;;;2.30;;
40116;SDS011;25829;50.228;18.936;2023-04-03T14:42:23;4.70;;;2.23;;
40116;SDS011;25829;50.228;18.936;2023-04-03T14:45:30;2.27;;;1.90;;
40116;SDS011;25829;50.228;18.936;2023-04-03T14:48:31;4.43;;;2.60;;
40116;SDS011;25829;50.228;18.936;2023-04-03T14:51:32;2.27;;;1.73;;
40116;SDS011;25829;50.228;18.936;2023-04-03T14:54:32;4.03;;;2.30;;
40116;SDS011;25829;50.228;18.936;2023-04-03T14:57:33;3.13;;;2.37;;
40116;SDS011;25829;50.228;18.936;2023-04-03T15:00:35;3.73;;;2.47;;
40116;SDS011;25829;50.228;18.936;2023-04-03T15:03:35;4.57;;;2.60;;
40116;SDS011;25829;50.228;18.936;2023-04-03T15:06:36;3.37;;;2.50;;
40116;SDS011;25829;50.228;18.936;2023-04-03T15:09:37;2.13;;;1.50;;
40116;SDS011;25829;50.228;18.936;2023-04-03T15:12:41;2.70;;;2.27;;
40116;SDS011;25829;50.228;18.936;2023-04-03T15:15:42;4.50;;;2.07;;
40116;SDS011;25829;50.228;18.936;2023-04-03T15:18:43;3.80;;;2.30;;
40116;SDS011;25829;50.228;18.936;2023-04-03T15:21:46;2.80;;;2.17;;
40116;SDS011;25829;50.228;18.936;2023-04-03T15:24:46;3.20;;;2.37;;
40116;SDS011;25829;50.228;18.936;2023-04-03T15:27:47;5.13;;;2.77;;
40116;SDS011;25829;50.228;18.936;2023-04-03T15:30:48;3.13;;;2.00;;
40116;SDS011;25829;50.228;18.936;2023-04-03T15:33:49;2.77;;;2.13;;
40116;SDS011;25829;50.228;18.936;2023-04-03T15:36:50;4.40;;;2.80;;
40116;SDS011;25829;50.228;18.936;2023-04-03T15:39:52;9.70;;;5.73;;
40116;SDS011;25829;50.228;18.936;2023-04-03T15:42:53;8.83;;;4.77;;
40116;SDS011;25829;50.228;18.936;2023-04-03T15:45:58;5.63;;;3.37;;
40116;SDS011;25829;50.228;18.936;2023-04-03T15:49:02;5.33;;;3.67;;
40116;SDS011;25829;50.228;18.936;2023-04-03T15:52:02;8.57;;;4.60;;
40116;SDS011;25829;50.228;18.936;2023-04-03T15:55:04;8.27;;;4.00;;
40116;SDS011;25829;50.228;18.936;2023-04-03T15:58:06;4.07;;;3.07;;
40116;SDS011;25829;50.228;18.936;2023-04-03T16:01:08;4.90;;;3.43;;
40116;SDS011;25829;50.228;18.936;2023-04-03T16:04:10;5.73;;;3.13;;
40116;SDS011;25829;50.228;18.936;2023-04-03T16:07:20;6.23;;;2.97;;
40116;SDS011;25829;50.228;18.936;2023-04-03T16:10:24;5.67;;;3.43;;
40116;SDS011;25829;50.228;18.936;2023-04-03T16:13:32;5.73;;;3.87;;
40116;SDS011;25829;50.228;18.936;2023-04-03T16:16:36;4.63;;;3.30;;
40116;SDS011;25829;50.228;18.936;2023-04-03T16:19:37;7.40;;;3.37;;
40116;SDS011;25829;50.228;18.936;2023-04-03T16:22:51;7.43;;;2.83;;
40116;SDS011;25829;50.228;18.936;2023-04-03T16:25:56;5.60;;;3.70;;
40116;SDS011;25829;50.228;18.936;2023-04-03T16:33:17;4.93;;;4.03;;
40116;SDS011;25829;50.228;18.936;2023-04-03T16:36:21;3.87;;;3.10;;
40116;SDS011;25829;50.228;18.936;2023-04-03T16:39:22;6.93;;;3.33;;
40116;SDS011;25829;50.228;18.936;2023-04-03T16:42:30;4.50;;;3.37;;
40116;SDS011;25829;50.228;18.936;2023-04-03T16:45:32;6.00;;;3.10;;
40116;SDS011;25829;50.228;18.936;2023-04-03T16:48:32;2.87;;;2.60;;
40116;SDS011;25829;50.228;18.936;2023-04-03T16:51:33;3.20;;;2.10;;
40116;SDS011;25829;50.228;18.936;2023-04-03T16:54:34;4.63;;;2.53;;
40116;SDS011;25829;50.228;18.936;2023-04-03T16:57:38;3.13;;;2.50;;
40116;SDS011;25829;50.228;18.936;2023-04-03T17:00:45;3.80;;;2.73;;
40116;SDS011;25829;50.228;18.936;2023-04-03T17:04:05;3.90;;;2.70;;
40116;SDS011;25829;50.228;18.936;2023-04-03T17:07:06;3.83;;;2.57;;
40116;SDS011;25829;50.228;18.936;2023-04-03T17:10:08;4.77;;;3.00;;
40116;SDS011;25829;50.228;18.936;2023-04-03T17:13:11;5.80;;;3.03;;
40116;SDS011;25829;50.228;18.936;2023-04-03T17:19:42;10.17;;;5.20;;
40116;SDS011;25829;50.228;18.936;2023-04-03T17:22:57;6.57;;;3.97;;
40116;SDS011;25829;50.228;18.936;2023-04-03T17:26:07;4.17;;;3.17;;
40116;SDS011;25829;50.228;18.936;2023-04-03T17:29:13;6.17;;;3.50;;
40116;SDS011;25829;50.228;18.936;2023-04-03T17:32:17;10.87;;;4.20;;
40116;SDS011;25829;50.228;18.936;2023-04-03T17:35:20;8.20;;;4.70;;
40116;SDS011;25829;50.228;18.936;2023-04-03T17:38:21;9.17;;;5.03;;
40116;SDS011;25829;50.228;18.936;2023-04-03T17:41:24;4.13;;;3.30;;
40116;SDS011;25829;50.228;18.936;2023-04-03T17:44:26;6.37;;;3.33;;
40116;SDS011;25829;50.228;18.936;2023-04-03T17:47:27;4.37;;;3.10;;
40116;SDS011;25829;50.228;18.936;2023-04-03T17:50:28;4.30;;;2.83;;
40116;SDS011;25829;50.228;18.936;2023-04-03T17:53:29;4.97;;;3.73;;
40116;SDS011;25829;50.228;18.936;2023-04-03T17:56:51;5.33;;;4.23;;
40116;SDS011;25829;50.228;18.936;2023-04-03T17:59:51;7.53;;;3.67;;
40116;SDS011;25829;50.228;18.936;2023-04-03T18:06:11;9.87;;;3.70;;
40116;SDS011;25829;50.228;18.936;2023-04-03T18:09:20;5.03;;;3.40;;
40116;SDS011;25829;50.228;18.936;2023-04-03T18:12:28;6.90;;;3.37;;
40116;SDS011;25829;50.228;18.936;2023-04-03T18:15:31;3.73;;;3.17;;
40116;SDS011;25829;50.228;18.936;2023-04-03T18:18:35;4.77;;;3.23;;
40116;SDS011;25829;50.228;18.936;2023-04-03T18:21:54;4.73;;;3.17;;
40116;SDS011;25829;50.228;18.936;2023-04-03T18:25:30;6.57;;;3.30;;
40116;SDS011;25829;50.228;18.936;2023-04-03T18:28:32;5.53;;;4.20;;
40116;SDS011;25829;50.228;18.936;2023-04-03T18:35:06;6.70;;;4.63;;
40116;SDS011;25829;50.228;18.936;2023-04-03T18:38:08;8.90;;;4.77;;
40116;SDS011;25829;50.228;18.936;2023-04-03T18:41:26;7.53;;;4.70;;
40116;SDS011;25829;50.228;18.936;2023-04-03T18:44:30;8.43;;;5.00;;
40116;SDS011;25829;50.228;18.936;2023-04-03T18:47:45;7.60;;;4.60;;
40116;SDS011;25829;50.228;18.936;2023-04-03T18:50:59;7.07;;;4.00;;
40116;SDS011;25829;50.228;18.936;2023-04-03T18:54:01;8.23;;;4.30;;
40116;SDS011;25829;50.228;18.936;2023-04-03T18:57:02;7.17;;;4.27;;
40116;SDS011;25829;50.228;18.936;2023-04-03T19:00:04;6.30;;;3.93;;
40116;SDS011;25829;50.228;18.936;2023-04-03T19:03:11;6.33;;;4.07;;
40116;SDS011;25829;50.228;18.936;2023-04-03T19:06:25;6.17;;;3.77;;
40116;SDS011;25829;50.228;18.936;2023-04-03T19:09:29;9.80;;;3.77;;
40116;SDS011;25829;50.228;18.936;2023-04-03T19:12:39;5.40;;;4.03;;
40116;SDS011;25829;50.228;18.936;2023-04-03T19:15:43;6.60;;;4.17;;
40116;SDS011;25829;50.228;18.936;2023-04-03T19:18:44;6.63;;;4.00;;
40116;SDS011;25829;50.228;18.936;2023-04-03T19:21:44;8.60;;;4.73;;
40116;SDS011;25829;50.228;18.936;2023-04-03T19:24:45;7.97;;;4.17;;
40116;SDS011;25829;50.228;18.936;2023-04-03T19:27:46;8.07;;;4.60;;
40116;SDS011;25829;50.228;18.936;2023-04-03T19:30:50;8.63;;;4.83;;
40116;SDS011;25829;50.228;18.936;2023-04-03T19:33:52;6.67;;;4.70;;
40116;SDS011;25829;50.228;18.936;2023-04-03T19:36:53;8.73;;;4.73;;
40116;SDS011;25829;50.228;18.936;2023-04-03T19:40:02;9.10;;;4.87;;
40116;SDS011;25829;50.228;18.936;2023-04-03T19:43:03;7.87;;;5.03;;
40116;SDS011;25829;50.228;18.936;2023-04-03T19:46:04;5.93;;;4.33;;
40116;SDS011;25829;50.228;18.936;2023-04-03T19:49:05;9.17;;;5.27;;
40116;SDS011;25829;50.228;18.936;2023-04-03T19:52:06;12.00;;;5.77;;
40116;SDS011;25829;50.228;18.936;2023-04-03T19:55:07;8.07;;;4.63;;
40116;SDS011;25829;50.228;18.936;2023-04-03T19:58:08;9.50;;;4.57;;
40116;SDS011;25829;50.228;18.936;2023-04-03T20:01:10;7.70;;;4.33;;
40116;SDS011;25829;50.228;18.936;2023-04-03T20:04:10;8.07;;;4.17;;
40116;SDS011;25829;50.228;18.936;2023-04-03T20:07:11;11.73;;;5.63;;